Terminal Aerodrome Forecast
Issued by NWS

Current Version | Previous Version | Text Only | Print | Product List | Glossary On
Versions: 1 2 3 4 5 6 7 8 9 10 11 12 13 14 15
000
FTUS42 KMLB 191700 RRA
TAFFPR
TAF
KFPR 191742Z 1918/2018 09007KT P6SM VCTS SCT025CB SCT060 OVC150
      TEMPO 1918/1921 3SM TSRA BKN025CB
     FM200000 03005KT P6SM -SHRA BKN030 OVC060
     FM201400 VRB05KT P6SM -SHRA SCT030 OVC060=

USA.gov is the U.S. government's official web portal to all federal, state and local government web resources and services.